sensor_id;sensor_type;location;lat;lon;timestamp;temperature;humidity
8953;DHT22;4511;50.890;8.054;2023-04-15T00:00:09;6.80;99.90
8953;DHT22;4511;50.890;8.054;2023-04-15T00:02:36;6.80;99.90
8953;DHT22;4511;50.890;8.054;2023-04-15T00:05:04;6.70;99.90
8953;DHT22;4511;50.890;8.054;2023-04-15T00:07:31;6.70;99.90
8953;DHT22;4511;50.890;8.054;2023-04-15T00:09:59;6.80;99.90
8953;DHT22;4511;50.890;8.054;2023-04-15T00:12:27;6.80;99.90
8953;DHT22;4511;50.890;8.054;2023-04-15T00:14:53;6.70;99.90
8953;DHT22;4511;50.890;8.054;2023-04-15T00:17:21;6.70;99.90
8953;DHT22;4511;50.890;8.054;2023-04-15T00:19:48;6.60;99.90
8953;DHT22;4511;50.890;8.054;2023-04-15T00:22:15;6.60;99.90
8953;DHT22;4511;50.890;8.054;2023-04-15T00:24:42;6.50;99.90
8953;DHT22;4511;50.890;8.054;2023-04-15T00:27:10;6.40;99.90
8953;DHT22;4511;50.890;8.054;2023-04-15T00:29:37;6.40;99.90
8953;DHT22;4511;50.890;8.054;2023-04-15T00:32:04;6.30;99.90
8953;DHT22;4511;50.890;8.054;2023-04-15T00:34:31;6.30;99.90
8953;DHT22;4511;50.890;8.054;2023-04-15T00:36:57;6.20;99.90
8953;DHT22;4511;50.890;8.054;2023-04-15T00:39:25;6.10;99.90
8953;DHT22;4511;50.890;8.054;2023-04-15T00:41:52;6.00;99.90
8953;DHT22;4511;50.890;8.054;2023-04-15T00:44:21;5.90;99.90
8953;DHT22;4511;50.890;8.054;2023-04-15T00:46:50;6.00;99.90
8953;DHT22;4511;50.890;8.054;2023-04-15T00:49:17;6.00;99.90
8953;DHT22;4511;50.890;8.054;2023-04-15T00:51:44;6.10;99.90
8953;DHT22;4511;50.890;8.054;2023-04-15T00:54:11;6.00;99.90
8953;DHT22;4511;50.890;8.054;2023-04-15T00:56:39;6.00;99.90
8953;DHT22;4511;50.890;8.054;2023-04-15T00:59:07;6.00;99.90
8953;DHT22;4511;50.890;8.054;2023-04-15T01:01:36;6.00;99.90
8953;DHT22;4511;50.890;8.054;2023-04-15T01:04:04;6.00;99.90
8953;DHT22;4511;50.890;8.054;2023-04-15T01:06:31;6.00;99.90
8953;DHT22;4511;50.890;8.054;2023-04-15T01:08:59;6.00;99.90
8953;DHT22;4511;50.890;8.054;2023-04-15T01:11:26;5.90;99.90
8953;DHT22;4511;50.890;8.054;2023-04-15T01:13:55;6.00;99.90
8953;DHT22;4511;50.890;8.054;2023-04-15T01:16:22;6.00;99.90
8953;DHT22;4511;50.890;8.054;2023-04-15T01:18:51;5.90;99.90
8953;DHT22;4511;50.890;8.054;2023-04-15T01:21:18;6.00;99.90
8953;DHT22;4511;50.890;8.054;2023-04-15T01:23:46;6.00;99.90
8953;DHT22;4511;50.890;8.054;2023-04-15T01:26:15;6.00;99.90
8953;DHT22;4511;50.890;8.054;2023-04-15T01:28:42;5.90;99.90
8953;DHT22;4511;50.890;8.054;2023-04-15T01:31:11;5.90;99.90
8953;DHT22;4511;50.890;8.054;2023-04-15T01:33:39;5.90;99.90
8953;DHT22;4511;50.890;8.054;2023-04-15T01:36:08;5.90;99.90
8953;DHT22;4511;50.890;8.054;2023-04-15T01:38:35;5.90;99.90
8953;DHT22;4511;50.890;8.054;2023-04-15T01:41:02;5.90;99.90
8953;DHT22;4511;50.890;8.054;2023-04-15T01:43:33;5.90;99.90
8953;DHT22;4511;50.890;8.054;2023-04-15T01:46:00;5.90;99.90
8953;DHT22;4511;50.890;8.054;2023-04-15T01:48:27;5.90;99.90
8953;DHT22;4511;50.890;8.054;2023-04-15T01:50:54;5.90;99.90
8953;DHT22;4511;50.890;8.054;2023-04-15T01:53:22;5.80;99.90
8953;DHT22;4511;50.890;8.054;2023-04-15T01:55:50;5.70;99.90
8953;DHT22;4511;50.890;8.054;2023-04-15T01:58:17;5.60;99.90
8953;DHT22;4511;50.890;8.054;2023-04-15T02:00:48;5.60;99.90
8953;DHT22;4511;50.890;8.054;2023-04-15T02:03:15;5.60;99.90
8953;DHT22;4511;50.890;8.054;2023-04-15T02:05:42;5.60;99.90
8953;DHT22;4511;50.890;8.054;2023-04-15T02:08:09;5.60;99.90
8953;DHT22;4511;50.890;8.054;2023-04-15T02:10:36;5.60;99.90
8953;DHT22;4511;50.890;8.054;2023-04-15T02:13:03;5.50;99.90
8953;DHT22;4511;50.890;8.054;2023-04-15T02:15:30;5.50;99.90
8953;DHT22;4511;50.890;8.054;2023-04-15T02:17:59;5.50;99.90
8953;DHT22;4511;50.890;8.054;2023-04-15T02:20:26;5.50;99.90
8953;DHT22;4511;50.890;8.054;2023-04-15T02:22:55;5.50;99.90
8953;DHT22;4511;50.890;8.054;2023-04-15T02:25:22;5.50;99.90
8953;DHT22;4511;50.890;8.054;2023-04-15T02:27:49;5.40;99.90
8953;DHT22;4511;50.890;8.054;2023-04-15T02:30:16;5.30;99.90
8953;DHT22;4511;50.890;8.054;2023-04-15T02:32:43;5.30;99.90
8953;DHT22;4511;50.890;8.054;2023-04-15T02:35:11;5.30;99.90
8953;DHT22;4511;50.890;8.054;2023-04-15T02:37:38;5.30;99.90
8953;DHT22;4511;50.890;8.054;2023-04-15T02:40:08;5.20;99.90
8953;DHT22;4511;50.890;8.054;2023-04-15T02:42:37;5.20;99.90
8953;DHT22;4511;50.890;8.054;2023-04-15T02:45:05;5.20;99.90
8953;DHT22;4511;50.890;8.054;2023-04-15T02:47:32;5.20;99.90
8953;DHT22;4511;50.890;8.054;2023-04-15T02:49:59;5.20;99.90
8953;DHT22;4511;50.890;8.054;2023-04-15T02:52:27;5.30;99.90
8953;DHT22;4511;50.890;8.054;2023-04-15T02:54:55;5.30;99.90
8953;DHT22;4511;50.890;8.054;2023-04-15T02:57:25;5.30;99.90
8953;DHT22;4511;50.890;8.054;2023-04-15T02:59:52;5.20;99.90
8953;DHT22;4511;50.890;8.054;2023-04-15T03:02:18;5.10;99.90
8953;DHT22;4511;50.890;8.054;2023-04-15T03:04:46;5.10;99.90
8953;DHT22;4511;50.890;8.054;2023-04-15T03:07:13;5.10;99.90
8953;DHT22;4511;50.890;8.054;2023-04-15T03:09:41;5.00;99.90
8953;DHT22;4511;50.890;8.054;2023-04-15T03:12:08;5.00;99.90
8953;DHT22;4511;50.890;8.054;2023-04-15T03:14:35;5.00;99.90
8953;DHT22;4511;50.890;8.054;2023-04-15T03:17:01;5.00;99.90
8953;DHT22;4511;50.890;8.054;2023-04-15T03:19:28;5.10;99.90
8953;DHT22;4511;50.890;8.054;2023-04-15T03:21:56;5.10;99.90
8953;DHT22;4511;50.890;8.054;2023-04-15T03:24:23;5.00;99.90
8953;DHT22;4511;50.890;8.054;2023-04-15T03:26:51;4.90;99.90
8953;DHT22;4511;50.890;8.054;2023-04-15T03:29:19;4.80;99.90
8953;DHT22;4511;50.890;8.054;2023-04-15T03:31:46;4.70;99.90
8953;DHT22;4511;50.890;8.054;2023-04-15T03:34:13;4.70;99.90
8953;DHT22;4511;50.890;8.054;2023-04-15T03:36:39;4.70;99.90
8953;DHT22;4511;50.890;8.054;2023-04-15T03:39:06;4.60;99.90
8953;DHT22;4511;50.890;8.054;2023-04-15T03:41:33;4.70;99.90
8953;DHT22;4511;50.890;8.054;2023-04-15T03:44:01;4.90;99.90
8953;DHT22;4511;50.890;8.054;2023-04-15T03:46:28;4.80;99.90
8953;DHT22;4511;50.890;8.054;2023-04-15T03:48:55;4.80;99.90
8953;DHT22;4511;50.890;8.054;2023-04-15T03:51:21;4.90;99.90
8953;DHT22;4511;50.890;8.054;2023-04-15T03:53:48;4.90;99.90
8953;DHT22;4511;50.890;8.054;2023-04-15T03:56:15;4.80;99.90
8953;DHT22;4511;50.890;8.054;2023-04-15T03:58:42;4.80;99.90
8953;DHT22;4511;50.890;8.054;2023-04-15T04:01:10;4.90;99.90
8953;DHT22;4511;50.890;8.054;2023-04-15T04:03:37;4.90;99.90
8953;DHT22;4511;50.890;8.054;2023-04-15T04:06:03;4.90;99.90
8953;DHT22;4511;50.890;8.054;2023-04-15T04:08:30;4.80;99.90
8953;DHT22;4511;50.890;8.054;2023-04-15T04:10:57;4.80;99.90
8953;DHT22;4511;50.890;8.054;2023-04-15T04:13:24;4.80;99.90
8953;DHT22;4511;50.890;8.054;2023-04-15T04:15:50;4.80;99.90
8953;DHT22;4511;50.890;8.054;2023-04-15T04:18:19;4.80;99.90
8953;DHT22;4511;50.890;8.054;2023-04-15T04:20:45;4.80;99.90
8953;DHT22;4511;50.890;8.054;2023-04-15T04:23:12;4.80;99.90
8953;DHT22;4511;50.890;8.054;2023-04-15T04:25:39;4.80;99.90
8953;DHT22;4511;50.890;8.054;2023-04-15T04:28:06;4.80;99.90
8953;DHT22;4511;50.890;8.054;2023-04-15T04:30:34;4.70;99.90
8953;DHT22;4511;50.890;8.054;2023-04-15T04:33:01;4.70;99.90
8953;DHT22;4511;50.890;8.054;2023-04-15T04:35:29;4.60;99.90
8953;DHT22;4511;50.890;8.054;2023-04-15T04:37:58;4.70;99.90
8953;DHT22;4511;50.890;8.054;2023-04-15T04:40:24;4.90;99.90
8953;DHT22;4511;50.890;8.054;2023-04-15T04:42:51;4.90;99.90
8953;DHT22;4511;50.890;8.054;2023-04-15T04:45:18;4.80;99.90
8953;DHT22;4511;50.890;8.054;2023-04-15T04:47:45;4.80;99.90
8953;DHT22;4511;50.890;8.054;2023-04-15T04:50:12;4.80;99.90
8953;DHT22;4511;50.890;8.054;2023-04-15T04:52:40;4.80;99.90
8953;DHT22;4511;50.890;8.054;2023-04-15T04:55:07;4.70;99.90
8953;DHT22;4511;50.890;8.054;2023-04-15T04:57:34;4.70;99.90
8953;DHT22;4511;50.890;8.054;2023-04-15T05:00:02;4.60;99.90
8953;DHT22;4511;50.890;8.054;2023-04-15T05:02:29;4.70;99.90
8953;DHT22;4511;50.890;8.054;2023-04-15T05:04:56;4.80;99.90
8953;DHT22;4511;50.890;8.054;2023-04-15T05:07:23;4.80;99.90
8953;DHT22;4511;50.890;8.054;2023-04-15T05:09:51;4.80;99.90
8953;DHT22;4511;50.890;8.054;2023-04-15T05:12:18;4.90;99.90
8953;DHT22;4511;50.890;8.054;2023-04-15T05:14:45;5.00;99.90
8953;DHT22;4511;50.890;8.054;2023-04-15T05:17:12;5.00;99.90
8953;DHT22;4511;50.890;8.054;2023-04-15T05:19:38;5.00;99.90
8953;DHT22;4511;50.890;8.054;2023-04-15T05:22:05;5.00;99.90
8953;DHT22;4511;50.890;8.054;2023-04-15T05:24:33;5.00;99.90
8953;DHT22;4511;50.890;8.054;2023-04-15T05:27:03;5.00;99.90
8953;DHT22;4511;50.890;8.054;2023-04-15T05:29:30;5.10;99.90
8953;DHT22;4511;50.890;8.054;2023-04-15T05:31:57;5.10;99.90
8953;DHT22;4511;50.890;8.054;2023-04-15T05:34:24;5.20;99.90
8953;DHT22;4511;50.890;8.054;2023-04-15T05:36:50;4.90;99.90
8953;DHT22;4511;50.890;8.054;2023-04-15T05:39:18;4.70;99.90
8953;DHT22;4511;50.890;8.054;2023-04-15T05:41:45;4.70;99.90
8953;DHT22;4511;50.890;8.054;2023-04-15T05:44:13;4.70;99.90
8953;DHT22;4511;50.890;8.054;2023-04-15T05:46:40;4.80;99.90
8953;DHT22;4511;50.890;8.054;2023-04-15T05:49:07;4.90;99.90
8953;DHT22;4511;50.890;8.054;2023-04-15T05:51:34;5.00;99.90
8953;DHT22;4511;50.890;8.054;2023-04-15T05:54:01;5.10;99.90
8953;DHT22;4511;50.890;8.054;2023-04-15T05:56:28;5.20;99.90
8953;DHT22;4511;50.890;8.054;2023-04-15T05:58:55;5.20;99.90
8953;DHT22;4511;50.890;8.054;2023-04-15T06:01:23;5.30;99.90
8953;DHT22;4511;50.890;8.054;2023-04-15T06:03:49;5.40;99.90
8953;DHT22;4511;50.890;8.054;2023-04-15T06:06:16;5.30;99.90
8953;DHT22;4511;50.890;8.054;2023-04-15T06:08:43;5.30;99.90
8953;DHT22;4511;50.890;8.054;2023-04-15T06:11:10;5.30;99.90
8953;DHT22;4511;50.890;8.054;2023-04-15T06:13:37;5.40;99.90
8953;DHT22;4511;50.890;8.054;2023-04-15T06:16:04;5.40;99.90
8953;DHT22;4511;50.890;8.054;2023-04-15T06:18:32;5.50;99.90
8953;DHT22;4511;50.890;8.054;2023-04-15T06:20:59;5.50;99.90
8953;DHT22;4511;50.890;8.054;2023-04-15T06:23:26;5.60;99.90
8953;DHT22;4511;50.890;8.054;2023-04-15T06:25:53;5.60;99.90
8953;DHT22;4511;50.890;8.054;2023-04-15T06:28:19;5.70;99.90
8953;DHT22;4511;50.890;8.054;2023-04-15T06:30:46;5.70;99.90
8953;DHT22;4511;50.890;8.054;2023-04-15T06:33:13;5.80;99.90
8953;DHT22;4511;50.890;8.054;2023-04-15T06:35:41;5.80;99.90
8953;DHT22;4511;50.890;8.054;2023-04-15T06:38:08;5.80;99.90
8953;DHT22;4511;50.890;8.054;2023-04-15T06:40:35;5.90;99.90
8953;DHT22;4511;50.890;8.054;2023-04-15T06:43:02;5.90;99.90
8953;DHT22;4511;50.890;8.054;2023-04-15T06:45:29;6.00;99.90
8953;DHT22;4511;50.890;8.054;2023-04-15T06:47:56;6.10;99.90
8953;DHT22;4511;50.890;8.054;2023-04-15T06:50:23;6.20;99.90
8953;DHT22;4511;50.890;8.054;2023-04-15T06:52:52;6.20;99.90
8953;DHT22;4511;50.890;8.054;2023-04-15T06:55:19;6.30;99.90
8953;DHT22;4511;50.890;8.054;2023-04-15T06:57:46;6.40;99.90
8953;DHT22;4511;50.890;8.054;2023-04-15T07:00:13;6.60;99.90
8953;DHT22;4511;50.890;8.054;2023-04-15T07:02:40;6.70;99.90
8953;DHT22;4511;50.890;8.054;2023-04-15T07:05:07;6.90;99.90
8953;DHT22;4511;50.890;8.054;2023-04-15T07:07:34;7.00;99.90
8953;DHT22;4511;50.890;8.054;2023-04-15T07:10:03;7.10;99.90
8953;DHT22;4511;50.890;8.054;2023-04-15T07:12:30;7.20;99.90
8953;DHT22;4511;50.890;8.054;2023-04-15T07:14:57;7.20;99.90
8953;DHT22;4511;50.890;8.054;2023-04-15T07:17:24;7.30;99.90
8953;DHT22;4511;50.890;8.054;2023-04-15T07:19:50;7.30;99.90
8953;DHT22;4511;50.890;8.054;2023-04-15T07:22:18;7.30;99.90
8953;DHT22;4511;50.890;8.054;2023-04-15T07:24:45;7.30;99.90
8953;DHT22;4511;50.890;8.054;2023-04-15T07:27:13;7.50;99.90
8953;DHT22;4511;50.890;8.054;2023-04-15T07:29:40;7.60;99.90
8953;DHT22;4511;50.890;8.054;2023-04-15T07:32:06;7.80;99.90
8953;DHT22;4511;50.890;8.054;2023-04-15T07:34:35;8.00;99.90
8953;DHT22;4511;50.890;8.054;2023-04-15T07:37:02;8.20;99.90
8953;DHT22;4511;50.890;8.054;2023-04-15T07:39:28;8.20;99.90
8953;DHT22;4511;50.890;8.054;2023-04-15T07:41:55;8.40;99.90
8953;DHT22;4511;50.890;8.054;2023-04-15T07:44:25;8.60;99.90
8953;DHT22;4511;50.890;8.054;2023-04-15T07:46:52;8.80;99.90
8953;DHT22;4511;50.890;8.054;2023-04-15T07:49:19;8.90;99.90
8953;DHT22;4511;50.890;8.054;2023-04-15T07:51:46;9.10;99.90
8953;DHT22;4511;50.890;8.054;2023-04-15T07:54:13;9.10;99.90
8953;DHT22;4511;50.890;8.054;2023-04-15T07:56:40;9.10;99.90
8953;DHT22;4511;50.890;8.054;2023-04-15T07:59:07;9.20;99.90
8953;DHT22;4511;50.890;8.054;2023-04-15T08:01:36;9.20;99.90
8953;DHT22;4511;50.890;8.054;2023-04-15T08:04:03;9.20;99.90
8953;DHT22;4511;50.890;8.054;2023-04-15T08:06:30;9.20;99.90
8953;DHT22;4511;50.890;8.054;2023-04-15T08:08:57;9.10;99.90
8953;DHT22;4511;50.890;8.054;2023-04-15T08:11:24;9.10;99.90
8953;DHT22;4511;50.890;8.054;2023-04-15T08:13:52;9.20;99.90
8953;DHT22;4511;50.890;8.054;2023-04-15T08:16:19;9.30;99.90
8953;DHT22;4511;50.890;8.054;2023-04-15T08:18:49;9.30;99.90
8953;DHT22;4511;50.890;8.054;2023-04-15T08:21:17;9.40;99.90
8953;DHT22;4511;50.890;8.054;2023-04-15T08:23:45;9.40;99.90
8953;DHT22;4511;50.890;8.054;2023-04-15T08:26:12;9.50;99.90
8953;DHT22;4511;50.890;8.054;2023-04-15T08:28:40;9.50;99.90
8953;DHT22;4511;50.890;8.054;2023-04-15T08:31:08;9.60;99.90
8953;DHT22;4511;50.890;8.054;2023-04-15T08:33:35;9.60;99.90
8953;DHT22;4511;50.890;8.054;2023-04-15T08:36:03;9.70;99.90
8953;DHT22;4511;50.890;8.054;2023-04-15T08:38:30;9.80;99.90
8953;DHT22;4511;50.890;8.054;2023-04-15T08:40:59;9.80;99.90
8953;DHT22;4511;50.890;8.054;2023-04-15T08:43:31;9.80;99.90
8953;DHT22;4511;50.890;8.054;2023-04-15T08:45:59;9.80;99.90
8953;DHT22;4511;50.890;8.054;2023-04-15T08:48:28;9.80;99.90
8953;DHT22;4511;50.890;8.054;2023-04-15T08:50:56;9.90;99.90
8953;DHT22;4511;50.890;8.054;2023-04-15T08:53:26;10.00;99.90
8953;DHT22;4511;50.890;8.054;2023-04-15T08:55:56;10.00;99.90
8953;DHT22;4511;50.890;8.054;2023-04-15T08:58:24;10.00;99.90
8953;DHT22;4511;50.890;8.054;2023-04-15T09:00:51;10.00;99.90
8953;DHT22;4511;50.890;8.054;2023-04-15T09:03:18;9.90;99.90
8953;DHT22;4511;50.890;8.054;2023-04-15T09:05:46;9.90;99.90
8953;DHT22;4511;50.890;8.054;2023-04-15T09:08:13;9.90;99.90
8953;DHT22;4511;50.890;8.054;2023-04-15T09:10:41;10.00;99.90
8953;DHT22;4511;50.890;8.054;2023-04-15T09:13:08;10.10;99.90
8953;DHT22;4511;50.890;8.054;2023-04-15T09:15:37;10.10;99.90
8953;DHT22;4511;50.890;8.054;2023-04-15T09:18:04;10.10;99.90
8953;DHT22;4511;50.890;8.054;2023-04-15T09:20:38;10.20;99.90
8953;DHT22;4511;50.890;8.054;2023-04-15T09:23:11;10.30;99.90
8953;DHT22;4511;50.890;8.054;2023-04-15T09:25:40;10.30;99.90
8953;DHT22;4511;50.890;8.054;2023-04-15T09:28:07;10.30;99.90
8953;DHT22;4511;50.890;8.054;2023-04-15T09:30:34;10.30;99.90
8953;DHT22;4511;50.890;8.054;2023-04-15T09:33:02;10.20;99.90
8953;DHT22;4511;50.890;8.054;2023-04-15T09:35:33;10.30;99.90
8953;DHT22;4511;50.890;8.054;2023-04-15T09:38:02;10.30;99.90
8953;DHT22;4511;50.890;8.054;2023-04-15T09:40:33;10.50;99.90
8953;DHT22;4511;50.890;8.054;2023-04-15T09:43:02;10.50;99.90
8953;DHT22;4511;50.890;8.054;2023-04-15T09:45:30;10.60;99.90
8953;DHT22;4511;50.890;8.054;2023-04-15T09:47:59;10.70;99.90
8953;DHT22;4511;50.890;8.054;2023-04-15T09:50:41;10.70;99.90
8953;DHT22;4511;50.890;8.054;2023-04-15T09:53:08;10.50;99.90
8953;DHT22;4511;50.890;8.054;2023-04-15T09:55:36;10.70;99.90
8953;DHT22;4511;50.890;8.054;2023-04-15T09:58:08;10.70;99.90
8953;DHT22;4511;50.890;8.054;2023-04-15T10:00:35;10.70;99.90
8953;DHT22;4511;50.890;8.054;2023-04-15T10:03:04;10.60;99.90
8953;DHT22;4511;50.890;8.054;2023-04-15T10:05:32;10.60;99.90
8953;DHT22;4511;50.890;8.054;2023-04-15T10:07:59;10.80;99.90
8953;DHT22;4511;50.890;8.054;2023-04-15T10:10:27;10.80;99.90
8953;DHT22;4511;50.890;8.054;2023-04-15T10:12:54;10.90;99.90
8953;DHT22;4511;50.890;8.054;2023-04-15T10:15:23;11.00;99.90
8953;DHT22;4511;50.890;8.054;2023-04-15T10:17:52;11.00;99.90
8953;DHT22;4511;50.890;8.054;2023-04-15T10:20:20;11.10;99.90
8953;DHT22;4511;50.890;8.054;2023-04-15T10:22:48;11.10;99.90
8953;DHT22;4511;50.890;8.054;2023-04-15T10:25:15;11.00;99.90
8953;DHT22;4511;50.890;8.054;2023-04-15T10:27:42;10.90;99.90
8953;DHT22;4511;50.890;8.054;2023-04-15T10:30:10;10.80;99.90
8953;DHT22;4511;50.890;8.054;2023-04-15T10:32:39;10.90;99.90
8953;DHT22;4511;50.890;8.054;2023-04-15T10:35:07;10.70;99.90
8953;DHT22;4511;50.890;8.054;2023-04-15T10:37:36;10.60;99.90
8953;DHT22;4511;50.890;8.054;2023-04-15T10:40:23;10.60;99.90
8953;DHT22;4511;50.890;8.054;2023-04-15T10:42:50;10.40;99.90
8953;DHT22;4511;50.890;8.054;2023-04-15T10:45:18;10.50;99.90
8953;DHT22;4511;50.890;8.054;2023-04-15T10:47:51;10.60;99.90
8953;DHT22;4511;50.890;8.054;2023-04-15T10:50:18;10.50;99.90
8953;DHT22;4511;50.890;8.054;2023-04-15T10:52:48;10.50;99.90
8953;DHT22;4511;50.890;8.054;2023-04-15T10:55:19;10.40;99.90
8953;DHT22;4511;50.890;8.054;2023-04-15T10:57:46;10.50;99.90
8953;DHT22;4511;50.890;8.054;2023-04-15T11:00:18;10.40;99.90
8953;DHT22;4511;50.890;8.054;2023-04-15T11:02:50;10.40;99.90
8953;DHT22;4511;50.890;8.054;2023-04-15T11:05:18;10.40;99.90
8953;DHT22;4511;50.890;8.054;2023-04-15T11:07:51;10.50;99.90
8953;DHT22;4511;50.890;8.054;2023-04-15T11:10:51;10.50;99.90
8953;DHT22;4511;50.890;8.054;2023-04-15T11:13:21;10.40;99.90
8953;DHT22;4511;50.890;8.054;2023-04-15T11:15:49;10.40;99.90
8953;DHT22;4511;50.890;8.054;2023-04-15T11:18:22;10.40;99.90
8953;DHT22;4511;50.890;8.054;2023-04-15T11:24:10;10.30;99.90
8953;DHT22;4511;50.890;8.054;2023-04-15T11:26:37;10.20;99.90
8953;DHT22;4511;50.890;8.054;2023-04-15T11:29:04;10.10;99.90
8953;DHT22;4511;50.890;8.054;2023-04-15T11:31:31;10.10;99.90
8953;DHT22;4511;50.890;8.054;2023-04-15T11:33:59;10.10;99.90
8953;DHT22;4511;50.890;8.054;2023-04-15T11:36:28;10.10;99.90
8953;DHT22;4511;50.890;8.054;2023-04-15T11:38:57;10.10;99.90
8953;DHT22;4511;50.890;8.054;2023-04-15T11:41:24;9.90;99.90
8953;DHT22;4511;50.890;8.054;2023-04-15T11:43:51;9.80;99.90
8953;DHT22;4511;50.890;8.054;2023-04-15T11:46:18;9.90;99.90
8953;DHT22;4511;50.890;8.054;2023-04-15T11:48:46;9.80;99.90
8953;DHT22;4511;50.890;8.054;2023-04-15T11:51:14;9.80;99.90
8953;DHT22;4511;50.890;8.054;2023-04-15T11:53:42;9.70;99.90
8953;DHT22;4511;50.890;8.054;2023-04-15T11:56:15;9.80;99.90
8953;DHT22;4511;50.890;8.054;2023-04-15T11:58:42;9.80;99.90
8953;DHT22;4511;50.890;8.054;2023-04-15T12:01:10;9.80;99.90
8953;DHT22;4511;50.890;8.054;2023-04-15T12:03:38;9.80;99.90
8953;DHT22;4511;50.890;8.054;2023-04-15T12:06:11;9.80;99.90
8953;DHT22;4511;50.890;8.054;2023-04-15T12:08:59;9.80;99.90
8953;DHT22;4511;50.890;8.054;2023-04-15T12:11:31;9.80;99.90
8953;DHT22;4511;50.890;8.054;2023-04-15T12:14:02;9.90;99.90
8953;DHT22;4511;50.890;8.054;2023-04-15T12:16:29;9.80;99.90
8953;DHT22;4511;50.890;8.054;2023-04-15T12:18:58;9.80;99.90
8953;DHT22;4511;50.890;8.054;2023-04-15T12:21:26;9.70;99.90
8953;DHT22;4511;50.890;8.054;2023-04-15T12:23:56;9.70;99.90
8953;DHT22;4511;50.890;8.054;2023-04-15T12:26:27;9.60;99.90
8953;DHT22;4511;50.890;8.054;2023-04-15T12:28:53;9.60;99.90
8953;DHT22;4511;50.890;8.054;2023-04-15T12:31:21;9.60;99.90
8953;DHT22;4511;50.890;8.054;2023-04-15T12:33:48;9.80;99.90
8953;DHT22;4511;50.890;8.054;2023-04-15T12:36:15;9.80;99.90
8953;DHT22;4511;50.890;8.054;2023-04-15T12:38:42;9.80;99.90
8953;DHT22;4511;50.890;8.054;2023-04-15T12:41:10;9.80;99.90
8953;DHT22;4511;50.890;8.054;2023-04-15T12:43:37;9.80;99.90
8953;DHT22;4511;50.890;8.054;2023-04-15T12:46:03;9.60;99.90
8953;DHT22;4511;50.890;8.054;2023-04-15T12:48:31;9.60;99.90
8953;DHT22;4511;50.890;8.054;2023-04-15T12:50:59;9.50;99.90
8953;DHT22;4511;50.890;8.054;2023-04-15T12:53:26;9.40;99.90
8953;DHT22;4511;50.890;8.054;2023-04-15T12:55:53;9.40;99.90
8953;DHT22;4511;50.890;8.054;2023-04-15T12:58:21;9.40;99.90
8953;DHT22;4511;50.890;8.054;2023-04-15T13:00:48;9.30;99.90
8953;DHT22;4511;50.890;8.054;2023-04-15T13:03:16;9.40;99.90
8953;DHT22;4511;50.890;8.054;2023-04-15T13:05:42;9.40;99.90
8953;DHT22;4511;50.890;8.054;2023-04-15T13:08:10;9.40;99.90
8953;DHT22;4511;50.890;8.054;2023-04-15T13:10:36;9.40;99.90
8953;DHT22;4511;50.890;8.054;2023-04-15T13:13:03;9.40;99.90
8953;DHT22;4511;50.890;8.054;2023-04-15T13:15:32;9.40;99.90
8953;DHT22;4511;50.890;8.054;2023-04-15T13:17:59;9.50;99.90
8953;DHT22;4511;50.890;8.054;2023-04-15T13:20:25;9.50;99.90
8953;DHT22;4511;50.890;8.054;2023-04-15T13:22:52;9.50;99.90
8953;DHT22;4511;50.890;8.054;2023-04-15T13:25:19;9.50;99.90
8953;DHT22;4511;50.890;8.054;2023-04-15T13:27:46;9.50;99.90
8953;DHT22;4511;50.890;8.054;2023-04-15T13:30:13;9.40;99.90
8953;DHT22;4511;50.890;8.054;2023-04-15T13:32:41;9.50;99.90
8953;DHT22;4511;50.890;8.054;2023-04-15T13:35:08;9.50;99.90
8953;DHT22;4511;50.890;8.054;2023-04-15T13:37:35;9.50;99.90
8953;DHT22;4511;50.890;8.054;2023-04-15T13:40:02;9.50;99.90
8953;DHT22;4511;50.890;8.054;2023-04-15T13:42:31;9.40;99.90
8953;DHT22;4511;50.890;8.054;2023-04-15T13:44:59;9.50;99.90
8953;DHT22;4511;50.890;8.054;2023-04-15T13:47:26;9.40;99.90
8953;DHT22;4511;50.890;8.054;2023-04-15T13:49:54;9.40;99.90
8953;DHT22;4511;50.890;8.054;2023-04-15T13:52:21;9.50;99.90
8953;DHT22;4511;50.890;8.054;2023-04-15T13:54:48;9.70;99.90
8953;DHT22;4511;50.890;8.054;2023-04-15T13:57:15;9.60;99.90
8953;DHT22;4511;50.890;8.054;2023-04-15T13:59:41;9.60;99.90
8953;DHT22;4511;50.890;8.054;2023-04-15T14:02:09;9.60;99.90
8953;DHT22;4511;50.890;8.054;2023-04-15T14:04:35;9.50;99.90
8953;DHT22;4511;50.890;8.054;2023-04-15T14:07:04;9.50;99.90
8953;DHT22;4511;50.890;8.054;2023-04-15T14:09:30;9.60;99.90
8953;DHT22;4511;50.890;8.054;2023-04-15T14:11:57;9.50;99.90
8953;DHT22;4511;50.890;8.054;2023-04-15T14:14:24;9.40;99.90
8953;DHT22;4511;50.890;8.054;2023-04-15T14:16:51;9.40;99.90
8953;DHT22;4511;50.890;8.054;2023-04-15T14:19:18;9.40;99.90
8953;DHT22;4511;50.890;8.054;2023-04-15T14:21:44;9.40;99.90
8953;DHT22;4511;50.890;8.054;2023-04-15T14:24:13;9.40;99.90
8953;DHT22;4511;50.890;8.054;2023-04-15T14:26:39;9.20;99.90
8953;DHT22;4511;50.890;8.054;2023-04-15T14:29:06;9.20;99.90
8953;DHT22;4511;50.890;8.054;2023-04-15T14:31:33;9.20;99.90
8953;DHT22;4511;50.890;8.054;2023-04-15T14:33:59;9.20;99.90
8953;DHT22;4511;50.890;8.054;2023-04-15T14:36:26;9.20;99.90
8953;DHT22;4511;50.890;8.054;2023-04-15T14:38:53;9.20;99.90
8953;DHT22;4511;50.890;8.054;2023-04-15T14:41:21;9.20;99.90
8953;DHT22;4511;50.890;8.054;2023-04-15T14:43:48;9.30;99.90
8953;DHT22;4511;50.890;8.054;2023-04-15T14:46:15;9.30;99.90
8953;DHT22;4511;50.890;8.054;2023-04-15T14:48:42;9.40;99.90
8953;DHT22;4511;50.890;8.054;2023-04-15T14:51:08;9.30;99.90
8953;DHT22;4511;50.890;8.054;2023-04-15T14:53:35;9.30;99.90
8953;DHT22;4511;50.890;8.054;2023-04-15T14:56:02;9.30;99.90
8953;DHT22;4511;50.890;8.054;2023-04-15T14:58:30;9.40;99.90
8953;DHT22;4511;50.890;8.054;2023-04-15T15:00:57;9.30;99.90
8953;DHT22;4511;50.890;8.054;2023-04-15T15:03:24;9.40;99.90
8953;DHT22;4511;50.890;8.054;2023-04-15T15:05:51;9.30;99.90
8953;DHT22;4511;50.890;8.054;2023-04-15T15:08:18;9.30;99.90
8953;DHT22;4511;50.890;8.054;2023-04-15T15:10:45;9.30;99.90
8953;DHT22;4511;50.890;8.054;2023-04-15T15:13:12;9.30;99.90
8953;DHT22;4511;50.890;8.054;2023-04-15T15:15:40;9.30;99.90
8953;DHT22;4511;50.890;8.054;2023-04-15T15:18:07;9.30;99.90
8953;DHT22;4511;50.890;8.054;2023-04-15T15:20:34;9.30;99.90
8953;DHT22;4511;50.890;8.054;2023-04-15T15:23:01;9.30;99.90
8953;DHT22;4511;50.890;8.054;2023-04-15T15:25:27;9.30;99.90
8953;DHT22;4511;50.890;8.054;2023-04-15T15:27:54;9.30;99.90
8953;DHT22;4511;50.890;8.054;2023-04-15T15:30:21;9.20;99.90
8953;DHT22;4511;50.890;8.054;2023-04-15T15:32:50;9.20;99.90
8953;DHT22;4511;50.890;8.054;2023-04-15T15:35:16;9.30;99.90
8953;DHT22;4511;50.890;8.054;2023-04-15T15:37:44;9.30;99.90
8953;DHT22;4511;50.890;8.054;2023-04-15T15:40:11;9.30;99.90
8953;DHT22;4511;50.890;8.054;2023-04-15T15:42:38;9.30;99.90
8953;DHT22;4511;50.890;8.054;2023-04-15T15:45:06;9.30;99.90
8953;DHT22;4511;50.890;8.054;2023-04-15T15:47:32;9.30;99.90
8953;DHT22;4511;50.890;8.054;2023-04-15T15:50:01;9.30;99.90
8953;DHT22;4511;50.890;8.054;2023-04-15T15:52:27;9.30;99.90
8953;DHT22;4511;50.890;8.054;2023-04-15T15:54:54;9.30;99.90
8953;DHT22;4511;50.890;8.054;2023-04-15T15:57:21;9.20;99.90
8953;DHT22;4511;50.890;8.054;2023-04-15T15:59:48;9.20;99.90
8953;DHT22;4511;50.890;8.054;2023-04-15T16:02:15;9.10;99.90
8953;DHT22;4511;50.890;8.054;2023-04-15T16:04:42;9.10;99.90
8953;DHT22;4511;50.890;8.054;2023-04-15T16:07:10;9.20;99.90
8953;DHT22;4511;50.890;8.054;2023-04-15T16:09:37;9.10;99.90
8953;DHT22;4511;50.890;8.054;2023-04-15T16:12:05;9.10;99.90
8953;DHT22;4511;50.890;8.054;2023-04-15T16:14:32;9.00;99.90
8953;DHT22;4511;50.890;8.054;2023-04-15T16:16:59;9.00;99.90
8953;DHT22;4511;50.890;8.054;2023-04-15T16:19:25;9.00;99.90